Time;durP1;ratioP1;P1;durP2;ratioP2;P2;SDS_P1;SDS_P2;PMS_P1;PMS_P2;Temp;Humidity;BMP_temperature;BMP_pressure;BME280_temperature;BME280_humidity;BME280_pressure;Samples;Min_cycle;Max_cycle;Signal;HPM_P1;HPM_P2
2021/08/04 00:01:08;;;;;;;2.38;1.52;;;16.60;89.80;;;;;;5016631;28;20021;-67
2021/08/04 00:03:33;;;;;;;3.00;1.48;;;16.60;89.70;;;;;;5018425;28;20053;-70
2021/08/04 00:05:59;;;;;;;1.63;1.27;;;16.60;89.60;;;;;;5016037;28;20025;-67
2021/08/04 00:08:25;;;;;;;2.38;1.58;;;16.60;89.60;;;;;;5015122;28;20033;-68
2021/08/04 00:10:51;;;;;;;3.72;1.60;;;16.50;89.70;;;;;;5017806;28;20507;-69
2021/08/04 00:13:16;;;;;;;2.03;1.60;;;16.50;89.80;;;;;;5016458;28;20509;-68
2021/08/04 00:15:43;;;;;;;1.30;1.15;;;16.50;89.90;;;;;;5016771;28;20038;-68
2021/08/04 00:18:09;;;;;;;2.03;1.35;;;16.50;89.90;;;;;;5014929;28;20036;-67
2021/08/04 00:20:35;;;;;;;3.00;1.50;;;16.40;90.00;;;;;;5016233;28;20341;-67
2021/08/04 00:23:01;;;;;;;3.85;1.55;;;16.50;90.00;;;;;;5018348;28;20518;-67
2021/08/04 00:25:28;;;;;;;1.67;1.30;;;16.50;90.00;;;;;;5017216;28;20449;-68
2021/08/04 00:27:53;;;;;;;2.88;1.48;;;16.50;89.80;;;;;;5015469;28;20068;-67
2021/08/04 00:30:19;;;;;;;2.53;1.40;;;16.40;89.70;;;;;;5017970;28;20431;-68
2021/08/04 00:32:45;;;;;;;3.20;1.60;;;16.40;90.00;;;;;;5016511;28;20069;-67
2021/08/04 00:35:11;;;;;;;2.65;1.63;;;16.40;90.00;;;;;;5017146;28;20104;-67
2021/08/04 00:37:37;;;;;;;2.38;1.50;;;16.40;90.00;;;;;;5012361;28;20449;-69
2021/08/04 00:40:05;;;;;;;1.92;1.30;;;16.40;90.00;;;;;;5014640;28;20078;-67
2021/08/04 00:42:30;;;;;;;2.53;1.75;;;16.40;90.00;;;;;;5016074;28;20029;-66
2021/08/04 00:44:58;;;;;;;1.98;1.27;;;16.30;90.00;;;;;;5016921;28;20040;-67
2021/08/04 00:47:24;;;;;;;5.18;1.75;;;16.40;90.20;;;;;;5013500;28;20550;-66
2021/08/04 00:49:50;;;;;;;2.22;1.50;;;16.30;90.20;;;;;;5016470;28;20042;-67
2021/08/04 00:52:17;;;;;;;2.70;1.63;;;16.30;90.30;;;;;;5015921;28;20049;-67
2021/08/04 00:54:43;;;;;;;2.33;1.75;;;16.30;90.30;;;;;;5012348;28;20030;-67
2021/08/04 00:57:09;;;;;;;2.17;1.40;;;16.30;90.30;;;;;;5015868;28;20419;-66
2021/08/04 00:59:35;;;;;;;2.75;1.60;;;16.30;90.30;;;;;;5017174;28;21015;-67
2021/08/04 01:02:12;;;;;;;2.97;1.75;;;16.30;90.30;;;;;;5017103;28;20025;-65
2021/08/04 01:04:55;;;;;;;2.13;1.77;;;16.30;90.40;;;;;;5017549;28;20112;-68
2021/08/04 01:07:38;;;;;;;3.05;1.67;;;16.30;90.40;;;;;;5015870;28;20030;-66
2021/08/04 01:10:20;;;;;;;2.88;1.70;;;16.30;90.50;;;;;;5015609;28;20022;-66
2021/08/04 01:13:09;;;;;;;2.15;1.50;;;16.20;90.40;;;;;;5013298;28;20030;-67
2021/08/04 01:15:43;;;;;;;1.98;1.70;;;16.30;90.50;;;;;;5015902;28;20113;-66
2021/08/04 01:18:11;;;;;;;2.92;1.95;;;16.20;90.60;;;;;;5009086;28;20053;-66
2021/08/04 01:20:37;;;;;;;2.83;1.52;;;16.20;90.50;;;;;;5017550;28;20116;-67
2021/08/04 01:23:26;;;;;;;2.75;1.63;;;16.30;90.50;;;;;;5014851;28;20539;-67
2021/08/04 01:26:00;;;;;;;2.25;1.67;;;16.20;90.50;;;;;;5017128;28;20535;-67
2021/08/04 01:28:30;;;;;;;2.15;1.67;;;16.30;90.60;;;;;;5014252;28;20077;-66
2021/08/04 01:31:03;;;;;;;2.05;1.50;;;16.20;90.60;;;;;;5014963;28;20113;-66
2021/08/04 01:33:30;;;;;;;3.17;1.75;;;16.20;90.70;;;;;;5016270;28;20030;-68
2021/08/04 01:35:56;;;;;;;4.10;2.17;;;16.20;90.70;;;;;;5014865;28;20033;-66
2021/08/04 01:38:23;;;;;;;3.28;2.03;;;16.20;90.80;;;;;;5014849;28;20037;-66
2021/08/04 01:40:52;;;;;;;2.70;1.95;;;16.20;90.90;;;;;;5016931;28;20097;-66
2021/08/04 01:43:19;;;;;;;2.63;1.90;;;16.10;91.10;;;;;;5020973;28;20482;-66
2021/08/04 01:45:46;;;;;;;1.95;1.65;;;16.10;91.10;;;;;;5019833;28;20048;-67
2021/08/04 01:48:11;;;;;;;2.38;1.83;;;16.10;91.10;;;;;;5018133;28;20052;-66
2021/08/04 01:50:38;;;;;;;2.13;1.65;;;16.00;91.20;;;;;;5020604;28;20033;-66
2021/08/04 01:53:04;;;;;;;2.15;1.67;;;16.00;91.30;;;;;;5018089;28;20034;-67
2021/08/04 01:55:31;;;;;;;3.28;1.83;;;16.00;91.30;;;;;;5019413;28;20048;-67
2021/08/04 01:57:57;;;;;;;2.55;1.67;;;15.90;91.30;;;;;;5015214;28;20088;-67
2021/08/04 02:00:23;;;;;;;3.80;1.80;;;15.90;91.30;;;;;;5021717;28;20104;-66
2021/08/04 02:02:48;;;;;;;3.15;1.67;;;15.90;91.30;;;;;;5017982;28;20113;-67
2021/08/04 02:05:14;;;;;;;2.70;2.00;;;15.80;91.30;;;;;;5020375;28;20029;-67
2021/08/04 02:08:01;;;;;;;2.70;2.03;;;15.80;91.30;;;;;;5016285;28;20033;-66
2021/08/04 02:10:52;;;;;;;2.95;1.80;;;15.80;91.40;;;;;;5019085;28;20044;-67
2021/08/04 02:13:32;;;;;;;5.05;1.95;;;15.80;91.40;;;;;;5018652;28;20029;-67
2021/08/04 02:16:21;;;;;;;1.95;1.58;;;15.80;91.40;;;;;;5019694;28;20042;-67
2021/08/04 02:18:55;;;;;;;2.03;1.67;;;15.80;91.50;;;;;;5015677;28;20120;-66
2021/08/04 02:21:24;;;;;;;4.78;2.08;;;15.70;91.50;;;;;;5020672;28;20033;-66
2021/08/04 02:23:52;;;;;;;3.22;1.80;;;15.60;91.60;;;;;;5019774;28;20022;-67
2021/08/04 02:26:20;;;;;;;3.40;2.00;;;15.60;91.60;;;;;;5020789;28;20392;-68
2021/08/04 02:28:52;;;;;;;3.38;1.75;;;15.60;91.60;;;;;;5015301;28;20033;-66
2021/08/04 02:31:19;;;;;;;3.03;2.05;;;15.60;91.70;;;;;;5019967;28;20069;-67
2021/08/04 02:33:45;;;;;;;3.15;2.05;;;15.60;91.80;;;;;;5015408;28;20116;-67
2021/08/04 02:36:12;;;;;;;3.20;2.20;;;15.60;91.80;;;;;;5017438;28;20423;-67
2021/08/04 02:38:38;;;;;;;2.83;1.77;;;15.50;91.80;;;;;;5017949;28;20044;-67
2021/08/04 02:41:04;;;;;;;2.33;1.90;;;15.50;91.80;;;;;;5016392;28;20030;-67
2021/08/04 02:43:30;;;;;;;2.13;1.90;;;15.50;91.90;;;;;;5017982;28;20121;-66
2021/08/04 02:45:58;;;;;;;3.72;1.70;;;15.50;91.90;;;;;;5018477;28;20026;-66
2021/08/04 02:48:24;;;;;;;3.03;2.00;;;15.50;91.90;;;;;;5017075;28;20514;-67
2021/08/04 02:51:11;;;;;;;2.53;2.08;;;15.50;92.00;;;;;;5014158;28;20106;-68
2021/08/04 02:53:37;;;;;;;4.47;2.17;;;15.50;91.90;;;;;;5016110;28;20484;-67
2021/08/04 02:56:03;;;;;;;2.15;1.83;;;15.50;92.00;;;;;;5019558;28;20033;-68
2021/08/04 02:58:35;;;;;;;3.83;2.00;;;15.50;92.00;;;;;;5014941;28;20423;-68
2021/08/04 03:01:02;;;;;;;2.67;2.20;;;15.50;92.10;;;;;;5019480;28;20113;-67
2021/08/04 03:03:27;;;;;;;3.58;2.33;;;15.50;92.10;;;;;;5016557;28;20049;-68
2021/08/04 03:05:53;;;;;;;4.05;2.80;;;15.50;92.20;;;;;;5014022;28;20433;-67
2021/08/04 03:08:19;;;;;;;3.17;2.30;;;15.50;92.30;;;;;;5014082;28;20034;-67
2021/08/04 03:10:44;;;;;;;3.00;2.03;;;15.50;92.20;;;;;;5017937;28;20354;-66
2021/08/04 03:13:10;;;;;;;2.35;2.00;;;15.50;92.20;;;;;;5019371;28;20044;-66
2021/08/04 03:15:36;;;;;;;2.75;2.10;;;15.50;92.30;;;;;;5018303;28;20113;-66
2021/08/04 03:18:01;;;;;;;3.28;2.05;;;15.50;92.30;;;;;;5015420;28;20120;-67
2021/08/04 03:20:27;;;;;;;6.32;2.20;;;15.50;92.30;;;;;;5014225;28;20372;-67
2021/08/04 03:22:53;;;;;;;4.43;2.20;;;15.60;92.30;;;;;;5017333;28;20030;-66
2021/08/04 03:25:19;;;;;;;3.80;2.30;;;15.60;92.30;;;;;;5017850;28;20113;-66
2021/08/04 03:27:45;;;;;;;14.10;3.10;;;15.60;92.30;;;;;;5014955;28;20124;-66
2021/08/04 03:30:12;;;;;;;4.03;2.40;;;15.60;92.30;;;;;;5017771;28;20037;-67
2021/08/04 03:32:38;;;;;;;4.00;2.38;;;15.50;92.30;;;;;;5017694;28;20034;-66
2021/08/04 03:35:05;;;;;;;4.25;2.20;;;15.60;92.40;;;;;;5018583;28;20036;-67
2021/08/04 03:37:31;;;;;;;4.88;2.58;;;15.50;92.40;;;;;;5015632;28;20106;-67
2021/08/04 03:39:57;;;;;;;3.50;2.47;;;15.50;92.50;;;;;;5019406;28;20038;-66
2021/08/04 03:42:22;;;;;;;4.25;2.83;;;15.50;92.50;;;;;;5017472;28;20021;-67
2021/08/04 03:44:48;;;;;;;4.55;2.47;;;15.50;92.50;;;;;;5017270;28;20030;-67
2021/08/04 03:47:14;;;;;;;3.85;2.83;;;15.50;92.50;;;;;;5015026;28;20033;-67
2021/08/04 03:49:39;;;;;;;4.88;3.10;;;15.50;92.50;;;;;;5018529;28;20045;-67
2021/08/04 03:52:05;;;;;;;3.38;2.55;;;15.50;92.60;;;;;;5016640;28;20156;-67
2021/08/04 03:54:31;;;;;;;4.60;3.00;;;15.50;92.60;;;;;;5015460;28;20037;-67
2021/08/04 03:56:56;;;;;;;4.25;2.78;;;15.50;92.80;;;;;;5014574;28;20034;-67
2021/08/04 03:59:23;;;;;;;4.13;2.60;;;15.40;92.80;;;;;;5015828;28;20056;-67
2021/08/04 04:01:49;;;;;;;4.40;2.97;;;15.40;92.80;;;;;;5011495;28;20097;-66
2021/08/04 04:04:15;;;;;;;5.20;3.30;;;15.50;92.80;;;;;;5014107;28;20299;-67
2021/08/04 04:06:41;;;;;;;5.13;2.95;;;15.40;92.80;;;;;;5017497;28;20795;-66
2021/08/04 04:09:06;;;;;;;6.88;3.10;;;15.40;92.80;;;;;;5018336;28;20662;-67
2021/08/04 04:11:32;;;;;;;5.70;3.00;;;15.40;92.90;;;;;;5018224;28;20152;-67
2021/08/04 04:13:58;;;;;;;5.30;3.28;;;15.40;92.90;;;;;;5017043;28;20112;-68
2021/08/04 04:16:24;;;;;;;4.10;2.72;;;15.40;92.90;;;;;;5013351;28;20376;-69
2021/08/04 04:18:50;;;;;;;3.90;2.65;;;15.40;92.90;;;;;;5014620;28;20030;-67
2021/08/04 04:21:16;;;;;;;4.32;3.22;;;15.50;92.90;;;;;;5019039;28;20030;-67
2021/08/04 04:23:42;;;;;;;4.55;3.50;;;15.40;93.00;;;;;;5017533;28;20030;-67
2021/08/04 04:26:08;;;;;;;4.15;2.72;;;15.40;93.00;;;;;;5017566;28;20400;-69
2021/08/04 04:28:33;;;;;;;3.53;2.85;;;15.40;93.00;;;;;;5014510;28;20033;-67
2021/08/04 04:30:59;;;;;;;4.38;2.60;;;15.40;93.00;;;;;;5016253;28;20030;-66
2021/08/04 04:33:25;;;;;;;4.15;2.70;;;15.50;93.00;;;;;;5018094;28;20155;-67
2021/08/04 04:35:51;;;;;;;5.00;2.88;;;15.50;93.10;;;;;;5018739;28;20025;-68
2021/08/04 04:38:17;;;;;;;4.13;2.80;;;15.50;93.00;;;;;;5014844;28;20049;-66
2021/08/04 04:40:43;;;;;;;6.05;3.05;;;15.50;93.00;;;;;;5014131;28;20499;-66
2021/08/04 04:43:08;;;;;;;4.22;3.03;;;15.60;93.00;;;;;;5016317;28;20450;-67
2021/08/04 04:45:34;;;;;;;4.68;3.10;;;15.60;93.10;;;;;;5015473;28;20068;-67
2021/08/04 04:47:59;;;;;;;7.80;3.38;;;15.50;93.00;;;;;;5015269;28;20354;-68
2021/08/04 04:50:25;;;;;;;4.60;2.50;;;15.50;93.10;;;;;;5015729;28;20056;-67
2021/08/04 04:52:51;;;;;;;4.32;2.70;;;15.50;93.10;;;;;;5016463;28;20037;-67
2021/08/04 04:55:16;;;;;;;6.68;2.97;;;15.50;93.20;;;;;;5015955;28;20033;-68
2021/08/04 04:57:42;;;;;;;7.55;3.15;;;15.50;93.20;;;;;;5015527;28;20492;-68
2021/08/04 05:00:09;;;;;;;3.88;2.70;;;15.50;93.30;;;;;;5014712;28;20034;-68
2021/08/04 05:02:41;;;;;;;3.97;2.65;;;15.50;93.20;;;;;;5010260;28;20062;-69
2021/08/04 05:05:08;;;;;;;5.63;3.10;;;15.60;93.20;;;;;;5013834;28;20034;-68
2021/08/04 05:07:34;;;;;;;3.70;2.60;;;15.60;93.10;;;;;;5013695;28;20017;-68
2021/08/04 05:10:00;;;;;;;4.45;2.97;;;15.60;93.40;;;;;;5016904;28;20034;-69
2021/08/04 05:12:26;;;;;;;3.92;2.88;;;15.60;93.20;;;;;;5014635;28;20033;-68
2021/08/04 05:14:51;;;;;;;3.50;2.45;;;15.60;93.10;;;;;;5017879;28;20037;-69
2021/08/04 05:17:17;;;;;;;4.25;2.63;;;15.60;93.10;;;;;;5015537;28;20120;-67
2021/08/04 05:19:43;;;;;;;4.72;3.05;;;15.70;93.10;;;;;;5020818;28;20030;-69
2021/08/04 05:22:09;;;;;;;4.43;2.92;;;15.70;93.10;;;;;;5017131;28;20456;-68
2021/08/04 05:24:35;;;;;;;4.88;2.60;;;15.70;93.20;;;;;;5021005;28;20022;-68
2021/08/04 05:27:01;;;;;;;2.85;2.33;;;15.70;93.10;;;;;;5018513;28;20087;-68
2021/08/04 05:29:27;;;;;;;2.92;2.03;;;15.80;93.20;;;;;;5019869;28;20340;-69
2021/08/04 05:31:52;;;;;;;4.07;2.30;;;15.80;93.10;;;;;;5018519;28;20504;-69
2021/08/04 05:34:18;;;;;;;3.30;2.20;;;15.90;93.10;;;;;;5020224;28;20084;-68
2021/08/04 05:36:44;;;;;;;2.28;1.98;;;15.90;93.00;;;;;;5018192;28;20472;-69
2021/08/04 05:39:10;;;;;;;3.20;1.63;;;16.00;92.90;;;;;;5020138;28;20510;-69
2021/08/04 05:41:36;;;;;;;3.13;1.92;;;16.00;92.90;;;;;;5019792;28;20021;-68
2021/08/04 05:44:03;;;;;;;4.20;2.38;;;16.00;92.90;;;;;;5020387;28;20480;-68
2021/08/04 05:46:28;;;;;;;4.45;2.30;;;16.10;92.90;;;;;;5017118;28;20032;-68
2021/08/04 05:48:54;;;;;;;4.82;2.40;;;16.10;92.90;;;;;;5018130;28;20033;-68
2021/08/04 05:51:20;;;;;;;1.98;1.58;;;16.10;92.90;;;;;;5020088;28;20038;-68
2021/08/04 05:53:45;;;;;;;3.03;1.70;;;16.10;92.80;;;;;;5017332;28;20045;-68
2021/08/04 05:56:11;;;;;;;3.25;1.77;;;16.20;92.80;;;;;;5020274;28;20042;-68
2021/08/04 05:58:36;;;;;;;3.17;2.10;;;16.20;92.70;;;;;;5018012;28;20105;-68
2021/08/04 06:01:02;;;;;;;4.07;1.85;;;16.20;92.70;;;;;;5021229;28;20033;-68
2021/08/04 06:03:28;;;;;;;3.08;1.60;;;16.20;92.90;;;;;;5022259;28;20052;-68
2021/08/04 06:05:54;;;;;;;4.35;2.10;;;16.30;92.70;;;;;;5022522;28;20045;-68
2021/08/04 06:08:19;;;;;;;6.07;1.83;;;16.30;92.70;;;;;;5018645;28;20037;-68
2021/08/04 06:10:45;;;;;;;3.92;1.90;;;16.30;92.70;;;;;;5021559;28;20022;-68
2021/08/04 06:13:11;;;;;;;2.58;1.67;;;16.30;92.60;;;;;;5014531;28;20455;-68
2021/08/04 06:15:37;;;;;;;2.53;1.45;;;16.30;92.60;;;;;;5011629;28;20038;-68
2021/08/04 06:18:03;;;;;;;3.88;2.10;;;16.40;92.60;;;;;;5015083;28;20518;-67
2021/08/04 06:20:29;;;;;;;4.80;2.05;;;16.40;92.50;;;;;;5019873;28;20035;-68
2021/08/04 06:22:55;;;;;;;3.83;1.80;;;16.50;92.40;;;;;;5015185;28;20137;-69
2021/08/04 06:25:20;;;;;;;3.47;2.00;;;16.50;92.30;;;;;;5014448;28;20034;-66
2021/08/04 06:27:46;;;;;;;2.72;1.73;;;16.60;92.30;;;;;;5016350;28;20033;-67
2021/08/04 06:30:12;;;;;;;2.42;1.50;;;16.60;92.20;;;;;;5017108;28;20030;-66
2021/08/04 06:32:38;;;;;;;3.15;1.88;;;16.60;92.10;;;;;;5016024;28;20101;-67
2021/08/04 06:35:04;;;;;;;2.53;1.60;;;16.60;92.10;;;;;;5019017;28;20399;-68
2021/08/04 06:37:30;;;;;;;3.50;1.70;;;16.60;92.10;;;;;;5020548;28;20026;-67
2021/08/04 06:39:55;;;;;;;2.58;1.52;;;16.60;92.10;;;;;;5018259;28;20029;-69
2021/08/04 06:42:21;;;;;;;3.58;1.50;;;16.70;92.00;;;;;;5017865;28;20025;-67
2021/08/04 06:44:47;;;;;;;3.42;1.50;;;16.70;92.00;;;;;;5013062;28;20053;-68
2021/08/04 06:47:12;;;;;;;2.45;1.60;;;16.80;92.00;;;;;;5013485;28;20578;-67
2021/08/04 06:49:38;;;;;;;3.10;1.70;;;16.80;91.90;;;;;;5018286;28;20034;-67
2021/08/04 06:52:04;;;;;;;1.70;1.38;;;16.90;91.90;;;;;;5012840;28;20052;-70
2021/08/04 06:54:29;;;;;;;3.83;1.80;;;16.90;91.70;;;;;;5013439;28;20071;-69
2021/08/04 06:56:55;;;;;;;3.30;1.50;;;17.00;91.70;;;;;;5016040;28;20022;-67
2021/08/04 06:59:21;;;;;;;3.58;1.60;;;17.00;91.70;;;;;;5015172;28;20079;-67
2021/08/04 07:01:47;;;;;;;4.00;1.40;;;17.10;91.60;;;;;;5015557;28;20037;-67
2021/08/04 07:04:14;;;;;;;3.55;1.67;;;17.10;91.50;;;;;;5013995;28;20030;-68
2021/08/04 07:06:57;;;;;;;1.70;1.30;;;17.20;91.40;;;;;;5011170;28;20037;-67
2021/08/04 07:09:23;;;;;;;3.50;1.27;;;17.30;91.30;;;;;;5016382;28;20033;-67
2021/08/04 07:11:50;;;;;;;2.45;1.48;;;17.30;91.20;;;;;;5018463;28;20058;-68
2021/08/04 07:14:19;;;;;;;2.30;1.30;;;17.30;91.10;;;;;;5015938;28;20033;-67
2021/08/04 07:16:48;;;;;;;2.58;1.63;;;17.30;91.00;;;;;;5017424;28;20442;-69
2021/08/04 07:19:15;;;;;;;4.07;1.65;;;17.30;90.90;;;;;;5010946;28;20049;-68
2021/08/04 07:21:41;;;;;;;1.83;1.20;;;17.30;90.90;;;;;;5014764;28;20483;-68
2021/08/04 07:24:08;;;;;;;2.25;1.38;;;17.30;90.80;;;;;;5015166;28;20383;-69
2021/08/04 07:26:35;;;;;;;3.78;1.45;;;17.30;90.70;;;;;;5015346;28;20104;-68
2021/08/04 07:29:02;;;;;;;2.92;1.50;;;17.40;90.70;;;;;;5014936;28;20033;-69
2021/08/04 07:31:27;;;;;;;2.30;1.48;;;17.40;90.70;;;;;;5019884;28;20018;-68
2021/08/04 07:33:53;;;;;;;3.53;1.50;;;17.40;90.70;;;;;;5017078;28;20391;-71
2021/08/04 07:36:19;;;;;;;2.58;1.45;;;17.40;90.70;;;;;;5014035;28;20072;-69
2021/08/04 07:38:45;;;;;;;2.42;1.33;;;17.40;90.40;;;;;;5010147;28;20041;-68
2021/08/04 07:41:11;;;;;;;1.58;1.38;;;17.40;90.40;;;;;;5012509;28;20018;-68
2021/08/04 07:43:36;;;;;;;2.60;1.35;;;17.40;90.40;;;;;;5020046;28;20045;-68
2021/08/04 07:46:02;;;;;;;2.53;1.23;;;17.30;90.20;;;;;;5016073;28;20407;-68
2021/08/04 07:48:28;;;;;;;2.28;1.52;;;17.40;90.40;;;;;;5018028;28;20022;-68
2021/08/04 07:50:55;;;;;;;3.25;1.52;;;17.40;90.40;;;;;;5014992;28;20033;-68
2021/08/04 07:53:22;;;;;;;2.45;1.60;;;17.50;90.30;;;;;;5009860;28;20059;-68
2021/08/04 07:55:47;;;;;;;2.30;1.50;;;17.50;90.30;;;;;;5015114;28;20032;-69
2021/08/04 07:58:13;;;;;;;2.17;1.40;;;17.50;90.20;;;;;;5016894;28;20403;-68
2021/08/04 08:00:39;;;;;;;3.50;1.42;;;17.40;90.30;;;;;;5011476;28;20833;-68
2021/08/04 08:03:05;;;;;;;1.98;1.30;;;17.40;90.30;;;;;;5013992;28;20034;-68
2021/08/04 08:05:30;;;;;;;2.03;1.50;;;17.50;90.30;;;;;;5015929;28;20459;-69
2021/08/04 08:08:03;;;;;;;3.55;1.52;;;17.50;90.20;;;;;;5020345;28;20100;-67
2021/08/04 08:10:29;;;;;;;2.80;1.50;;;17.60;90.10;;;;;;5018132;28;20555;-67
2021/08/04 08:12:55;;;;;;;5.40;1.73;;;17.70;90.10;;;;;;5012870;28;20175;-68
2021/08/04 08:15:20;;;;;;;2.00;1.25;;;17.80;89.70;;;;;;5014799;28;20096;-69
2021/08/04 08:17:46;;;;;;;1.98;1.20;;;17.90;89.60;;;;;;5015610;28;20170;-67
2021/08/04 08:20:13;;;;;;;2.42;1.10;;;17.90;89.40;;;;;;5011919;28;20041;-67
2021/08/04 08:22:39;;;;;;;3.88;1.60;;;17.90;89.50;;;;;;5014103;28;20481;-67
2021/08/04 08:25:06;;;;;;;2.08;1.20;;;18.00;89.60;;;;;;5014994;28;20056;-67
2021/08/04 08:27:32;;;;;;;2.20;1.10;;;18.10;89.60;;;;;;5014912;28;20401;-68
2021/08/04 08:29:58;;;;;;;2.03;1.25;;;18.10;89.70;;;;;;5014435;28;20044;-68
2021/08/04 08:32:26;;;;;;;3.47;1.60;;;18.10;90.00;;;;;;5014018;28;20034;-68
2021/08/04 08:34:53;;;;;;;3.17;1.65;;;18.10;90.00;;;;;;5014097;28;20260;-69
2021/08/04 08:37:19;;;;;;;3.08;1.40;;;18.10;90.00;;;;;;5014637;28;20065;-68
2021/08/04 08:39:44;;;;;;;1.60;1.20;;;18.10;90.10;;;;;;5018923;28;20072;-68
2021/08/04 08:42:10;;;;;;;2.92;1.35;;;18.10;90.20;;;;;;5016339;28;20037;-68
2021/08/04 08:44:36;;;;;;;2.22;1.30;;;18.10;90.40;;;;;;5014510;28;20033;-69
2021/08/04 08:47:07;;;;;;;2.08;1.23;;;18.10;90.30;;;;;;5015933;28;20369;-69
2021/08/04 08:49:33;;;;;;;3.53;1.30;;;18.10;90.20;;;;;;5011709;28;20038;-68
2021/08/04 08:51:59;;;;;;;1.52;1.30;;;18.00;90.30;;;;;;5016999;28;20080;-68
2021/08/04 08:54:27;;;;;;;1.75;1.23;;;18.00;90.50;;;;;;5012892;28;20033;-68
2021/08/04 08:56:53;;;;;;;2.78;1.23;;;18.00;90.40;;;;;;5015987;28;20038;-68
2021/08/04 08:59:19;;;;;;;3.65;1.63;;;18.00;90.40;;;;;;5017423;28;20100;-69
2021/08/04 09:01:46;;;;;;;3.05;1.27;;;18.10;90.40;;;;;;5011667;28;20034;-70
2021/08/04 09:04:15;;;;;;;2.03;1.23;;;18.20;90.40;;;;;;5015144;28;20044;-68
2021/08/04 09:06:56;;;;;;;2.47;1.20;;;18.20;90.20;;;;;;5020480;28;20064;-68
2021/08/04 09:09:24;;;;;;;2.70;1.05;;;18.30;90.10;;;;;;5023225;28;20083;-67
2021/08/04 09:12:02;;;;;;;3.97;1.25;;;18.30;89.70;;;;;;5019355;28;20099;-68
2021/08/04 09:14:32;;;;;;;1.55;1.00;;;18.50;88.90;;;;;;5015428;28;20048;-68
2021/08/04 09:17:04;;;;;;;2.30;0.98;;;18.70;88.60;;;;;;5012952;28;20196;-68
2021/08/04 09:19:34;;;;;;;1.77;1.35;;;18.70;88.30;;;;;;5013929;28;20037;-68
2021/08/04 09:22:09;;;;;;;1.48;1.13;;;18.80;88.30;;;;;;5018216;28;20026;-68
2021/08/04 09:24:57;;;;;;;2.40;1.20;;;18.90;88.20;;;;;;5016957;28;20038;-69
2021/08/04 09:27:53;;;;;;;4.45;1.10;;;19.00;87.80;;;;;;5016049;28;20520;-68
2021/08/04 09:30:29;;;;;;;1.67;1.20;;;19.00;87.80;;;;;;5019202;28;20029;-69
2021/08/04 09:33:15;;;;;;;1.25;1.00;;;19.00;87.60;;;;;;5018022;28;20026;-68
2021/08/04 09:35:49;;;;;;;1.83;1.23;;;19.10;87.30;;;;;;5015877;28;20121;-67
2021/08/04 09:38:16;;;;;;;2.00;1.38;;;19.10;87.30;;;;;;5018486;28;20045;-68
2021/08/04 09:40:42;;;;;;;1.83;1.20;;;19.10;87.10;;;;;;5014849;28;20468;-69
2021/08/04 09:43:08;;;;;;;1.95;1.20;;;19.20;87.00;;;;;;5015210;28;20537;-69
2021/08/04 09:45:47;;;;;;;2.42;1.33;;;19.20;87.00;;;;;;5014231;28;20104;-69
2021/08/04 09:48:16;;;;;;;3.28;1.25;;;19.20;86.30;;;;;;5014788;28;20030;-68
2021/08/04 09:50:58;;;;;;;4.78;1.75;;;19.00;85.50;;;;;;5014267;28;20103;-68
2021/08/04 09:53:32;;;;;;;6.10;1.52;;;19.00;86.10;;;;;;5011930;28;20049;-68
2021/08/04 09:56:20;;;;;;;3.55;1.40;;;18.90;86.70;;;;;;5015741;28;20029;-68
2021/08/04 09:58:50;;;;;;;2.28;1.60;;;18.90;86.90;;;;;;5015127;28;20034;-69
2021/08/04 10:01:22;;;;;;;2.55;1.23;;;19.00;86.10;;;;;;5014821;28;20144;-68
2021/08/04 10:04:02;;;;;;;2.15;1.20;;;19.00;86.60;;;;;;5019781;28;20050;-69
2021/08/04 10:06:29;;;;;;;3.83;1.48;;;19.00;86.00;;;;;;5019930;28;20057;-68
2021/08/04 10:08:55;;;;;;;1.63;1.38;;;19.10;86.40;;;;;;5016904;28;20467;-68
2021/08/04 10:11:22;;;;;;;1.73;1.30;;;19.10;86.30;;;;;;5018866;28;20033;-68
2021/08/04 10:13:48;;;;;;;2.35;1.35;;;19.20;85.80;;;;;;5020753;28;20095;-68
2021/08/04 10:16:14;;;;;;;2.22;1.48;;;19.20;85.70;;;;;;5016961;28;20464;-67
2021/08/04 10:18:40;;;;;;;2.15;1.33;;;19.20;85.70;;;;;;5018849;28;20057;-68
2021/08/04 10:21:13;;;;;;;2.35;1.50;;;19.20;85.70;;;;;;5021217;28;20117;-68
2021/08/04 10:23:44;;;;;;;3.67;1.50;;;19.20;85.20;;;;;;5021995;28;20065;-69
2021/08/04 10:26:12;;;;;;;3.60;1.50;;;19.20;85.20;;;;;;5017981;28;20033;-68
2021/08/04 10:28:41;;;;;;;1.60;1.23;;;19.20;85.30;;;;;;5017109;28;20476;-69
2021/08/04 10:31:09;;;;;;;1.90;1.33;;;19.20;85.50;;;;;;5018587;28;20088;-69
2021/08/04 10:33:38;;;;;;;2.75;1.45;;;19.20;85.70;;;;;;5018338;28;20100;-69
2021/08/04 10:36:08;;;;;;;2.45;1.50;;;19.20;85.70;;;;;;5014415;28;20026;-67
2021/08/04 10:38:37;;;;;;;2.00;1.30;;;19.20;86.10;;;;;;5017939;28;20083;-67
2021/08/04 10:41:19;;;;;;;2.75;1.15;;;19.20;86.10;;;;;;5018616;28;20040;-67
2021/08/04 10:43:51;;;;;;;1.80;1.40;;;19.20;85.90;;;;;;5016700;28;20030;-67
2021/08/04 10:46:32;;;;;;;4.47;1.50;;;19.10;86.00;;;;;;5016741;28;20332;-67
2021/08/04 10:49:04;;;;;;;3.40;1.70;;;19.10;85.90;;;;;;5017578;28;20553;-67
2021/08/04 10:51:35;;;;;;;2.08;1.35;;;19.10;85.80;;;;;;5018251;28;20116;-67
2021/08/04 10:54:00;;;;;;;;;;;19.20;85.60;;;;;;5017481;28;20575;-67
2021/08/04 10:56:32;;;;;;;4.55;1.60;;;19.20;85.60;;;;;;5018337;28;20023;-66
2021/08/04 10:59:10;;;;;;;3.05;1.40;;;19.20;85.30;;;;;;5018831;28;20094;-66
2021/08/04 11:01:38;;;;;;;3.88;1.52;;;19.20;85.70;;;;;;5014188;28;20022;-67
2021/08/04 11:04:09;;;;;;;3.63;1.50;;;19.30;85.30;;;;;;5016749;28;20021;-66
2021/08/04 11:06:35;;;;;;;3.13;1.52;;;19.40;85.10;;;;;;5020092;28;20460;-66
2021/08/04 11:09:12;;;;;;;2.35;1.25;;;19.60;84.40;;;;;;5015675;28;20056;-66
2021/08/04 11:11:57;;;;;;;1.83;1.30;;;19.70;84.10;;;;;;5017246;28;20017;-66
2021/08/04 11:14:49;;;;;;;1.98;1.35;;;19.90;84.00;;;;;;5018641;28;20499;-68
2021/08/04 11:18:03;;;;;;;2.55;1.38;;;20.00;83.90;;;;;;5016140;28;20408;-68
2021/08/04 11:20:29;;;;;;;2.22;1.30;;;20.10;83.60;;;;;;5014581;28;20084;-68
2021/08/04 11:22:55;;;;;;;2.05;1.50;;;20.30;83.10;;;;;;5017763;28;20037;-66
2021/08/04 11:25:33;;;;;;;2.97;1.70;;;20.30;82.60;;;;;;5013317;28;20033;-66
2021/08/04 11:27:59;;;;;;;4.40;1.48;;;20.40;81.70;;;;;;5015446;28;20026;-68
2021/08/04 11:30:27;;;;;;;1.70;1.38;;;20.40;80.80;;;;;;5013804;28;20044;-69
2021/08/04 11:33:18;;;;;;;1.60;1.30;;;20.50;81.10;;;;;;5014363;28;20040;-69
2021/08/04 11:35:44;;;;;;;3.53;1.63;;;20.70;80.90;;;;;;5010178;28;20068;-69
2021/08/04 11:38:10;;;;;;;1.92;1.38;;;20.80;80.10;;;;;;5016869;28;20281;-68
2021/08/04 11:40:36;;;;;;;3.08;1.40;;;20.90;79.60;;;;;;5017450;28;20598;-69
2021/08/04 11:43:02;;;;;;;2.47;1.50;;;20.90;79.30;;;;;;5013856;28;20528;-72
2021/08/04 11:45:28;;;;;;;3.85;1.52;;;21.00;79.00;;;;;;5013311;28;20029;-70
2021/08/04 11:47:54;;;;;;;2.58;1.70;;;21.10;78.90;;;;;;5013342;28;20026;-71
2021/08/04 11:50:20;;;;;;;2.90;1.63;;;21.30;79.20;;;;;;5017684;28;20051;-70
2021/08/04 11:52:46;;;;;;;3.00;1.73;;;21.30;78.90;;;;;;5016486;28;20033;-70
2021/08/04 11:55:13;;;;;;;4.07;1.80;;;21.30;78.50;;;;;;5016788;28;20042;-70
2021/08/04 11:57:49;;;;;;;1.92;1.60;;;21.30;78.20;;;;;;5014446;28;20034;-72
2021/08/04 12:00:17;;;;;;;5.20;2.03;;;21.40;78.00;;;;;;5007595;28;20026;-70
2021/08/04 12:02:45;;;;;;;2.95;1.33;;;21.30;77.60;;;;;;5012571;28;20022;-71
2021/08/04 12:05:12;;;;;;;2.03;1.42;;;21.40;77.50;;;;;;5015752;28;20469;-70
2021/08/04 12:07:42;;;;;;;4.18;1.77;;;21.50;77.40;;;;;;5013034;28;20116;-69
2021/08/04 12:10:10;;;;;;;2.37;1.63;;;21.60;77.10;;;;;;5016221;28;20115;-71
2021/08/04 12:12:42;;;;;;;3.72;1.60;;;21.70;77.00;;;;;;5011620;28;20025;-70
2021/08/04 12:15:22;;;;;;;2.20;1.67;;;21.90;76.50;;;;;;5013466;28;20409;-70
2021/08/04 12:17:50;;;;;;;1.98;1.42;;;21.90;75.60;;;;;;5014289;28;20030;-70
2021/08/04 12:20:19;;;;;;;2.13;1.58;;;22.00;75.90;;;;;;5014584;28;20034;-71
2021/08/04 12:22:55;;;;;;;2.70;1.80;;;22.10;76.00;;;;;;5011237;28;20029;-72
2021/08/04 12:25:22;;;;;;;2.15;1.40;;;22.10;76.00;;;;;;5014858;28;20026;-71
2021/08/04 12:27:52;;;;;;;2.05;1.25;;;22.10;75.70;;;;;;5016287;28;20400;-70
2021/08/04 12:30:17;;;;;;;2.23;1.10;;;22.30;75.30;;;;;;5015947;28;20029;-70
2021/08/04 12:33:13;;;;;;;4.38;1.25;;;22.30;75.10;;;;;;5020966;28;20103;-70
2021/08/04 12:38:36;;;;;;;2.10;1.42;;;22.60;73.00;;;;;;5014449;28;20037;-70
2021/08/04 12:41:03;;;;;;;1.63;1.20;;;22.80;72.90;;;;;;5019105;28;20021;-70
2021/08/04 12:43:31;;;;;;;3.78;1.20;;;23.00;72.10;;;;;;5016057;28;20419;-71
2021/08/04 12:45:58;;;;;;;2.53;1.20;;;23.20;71.80;;;;;;5014473;28;20044;-71
2021/08/04 12:48:43;;;;;;;2.70;1.10;;;23.50;69.60;;;;;;5019832;28;20061;-71
2021/08/04 12:51:23;;;;;;;3.22;1.38;;;23.80;68.30;;;;;;5018725;28;20982;-71
2021/08/04 12:54:00;;;;;;;2.33;1.40;;;23.90;68.10;;;;;;5013071;28;20034;-71
2021/08/04 12:56:52;;;;;;;2.72;1.55;;;24.10;68.20;;;;;;5019650;28;20036;-70
2021/08/04 12:59:19;;;;;;;1.83;1.20;;;24.30;67.10;;;;;;5014907;28;20049;-70